Time;durP1;ratioP1;P1;durP2;ratioP2;P2;SDS_P1;SDS_P2;PMS_P1;PMS_P2;Temp;Humidity;BMP_temperature;BMP_pressure;BME280_temperature;BME280_humidity;BME280_pressure;Samples;Min_cycle;Max_cycle;Signal;HPM_P1;HPM_P2
2022/10/07 00:01:36;;;;;;;0.20;0.17;;;8.20;99.90;;;;;;4961497;29;20040;-77
2022/10/07 00:04:02;;;;;;;0.52;0.52;;;8.10;99.90;;;;;;4962740;29;20043;-76
2022/10/07 00:06:27;;;;;;;0.00;0.00;;;8.20;99.90;;;;;;4962791;29;20035;-77
2022/10/07 00:08:53;;;;;;;0.00;0.00;;;8.20;99.90;;;;;;4963208;29;20517;-77
2022/10/07 00:11:25;;;;;;;0.90;0.40;;;8.10;99.90;;;;;;4961748;29;20039;-77
2022/10/07 00:13:53;;;;;;;0.00;0.00;;;8.00;99.90;;;;;;4962008;29;20098;-78
2022/10/07 00:16:23;;;;;;;0.20;0.20;;;7.90;99.90;;;;;;4972607;28;20047;-78
2022/10/07 00:18:50;;;;;;;0.08;0.08;;;7.90;99.90;;;;;;4981508;28;20538;-76
2022/10/07 00:21:18;;;;;;;4.18;1.35;;;7.90;99.90;;;;;;4980460;28;20574;-76
2022/10/07 00:23:45;;;;;;;0.10;0.10;;;8.00;99.90;;;;;;4979697;28;20051;-77
2022/10/07 00:26:18;;;;;;;0.20;0.20;;;7.90;99.90;;;;;;4980117;28;20051;-77
2022/10/07 00:28:44;;;;;;;3.97;2.10;;;7.90;99.90;;;;;;4961431;28;20119;-79
2022/10/07 00:31:17;;;;;;;0.13;0.10;;;7.90;99.90;;;;;;4960344;29;20107;-76
2022/10/07 00:33:43;;;;;;;1.83;1.20;;;7.90;99.90;;;;;;4943903;29;20112;-77
2022/10/07 00:36:19;;;;;;;0.05;0.00;;;7.90;99.90;;;;;;4959630;29;20055;-78
2022/10/07 00:38:52;;;;;;;;;;;7.90;99.90;;;;;;4944077;29;20137;-77
2022/10/07 00:41:20;;;;;;;0.55;0.55;;;7.90;99.90;;;;;;4960639;29;19926;-76
2022/10/07 00:43:46;;;;;;;1.25;0.60;;;7.90;99.90;;;;;;4960199;29;20056;-77
2022/10/07 00:46:38;;;;;;;0.00;0.00;;;7.90;99.90;;;;;;4960319;29;20082;-77
2022/10/07 00:49:08;;;;;;;0.20;0.20;;;7.90;99.90;;;;;;4942263;29;20047;-77
2022/10/07 00:51:35;;;;;;;0.00;0.00;;;7.90;99.90;;;;;;4960823;29;20047;-76
2022/10/07 00:54:09;;;;;;;0.05;0.05;;;7.80;99.90;;;;;;4959882;29;20404;-76
2022/10/07 00:56:35;;;;;;;0.75;0.57;;;8.10;99.90;;;;;;4924588;29;20062;-76
2022/10/07 00:59:01;;;;;;;0.63;0.43;;;7.90;99.90;;;;;;4941201;29;20040;-77
2022/10/07 01:01:27;;;;;;;0.10;0.10;;;7.80;99.90;;;;;;4941162;29;20044;-77
2022/10/07 01:03:53;;;;;;;0.00;0.00;;;7.70;99.90;;;;;;4946023;29;20051;-76
2022/10/07 01:06:19;;;;;;;11.60;1.55;;;7.70;99.90;;;;;;4952074;29;20057;-77
2022/10/07 01:08:47;;;;;;;0.00;0.00;;;7.80;99.90;;;;;;4965673;29;20126;-78
2022/10/07 01:11:33;;;;;;;0.00;0.00;;;7.70;99.90;;;;;;4947480;29;20051;-77
2022/10/07 01:14:26;;;;;;;0.00;0.00;;;7.60;99.90;;;;;;4963971;29;20115;-76
2022/10/07 01:17:16;;;;;;;0.00;0.00;;;7.60;99.90;;;;;;4957889;29;20611;-76
2022/10/07 01:20:25;;;;;;;0.00;0.00;;;7.50;99.90;;;;;;4964068;29;20106;-77
2022/10/07 01:23:14;;;;;;;0.73;0.43;;;7.50;99.90;;;;;;4963370;29;20047;-77
2022/10/07 01:25:58;;;;;;;0.20;0.20;;;7.50;99.90;;;;;;4945690;29;20051;-76
2022/10/07 01:28:29;;;;;;;0.38;0.38;;;7.40;99.90;;;;;;4979769;28;20093;-76
2022/10/07 01:31:00;;;;;;;0.00;0.00;;;7.40;99.90;;;;;;4965471;28;20063;-77
2022/10/07 01:33:29;;;;;;;0.03;0.03;;;7.40;99.90;;;;;;4966102;28;20562;-77
2022/10/07 01:35:59;;;;;;;0.75;0.17;;;7.30;99.90;;;;;;4983225;28;20066;-79
2022/10/07 01:38:28;;;;;;;0.15;0.15;;;7.40;99.90;;;;;;4983695;28;20490;-78
2022/10/07 01:41:03;;;;;;;0.10;0.10;;;7.40;99.90;;;;;;4984131;28;20053;-77
2022/10/07 01:43:31;;;;;;;0.10;0.10;;;7.30;99.90;;;;;;4983379;28;20039;-77
2022/10/07 01:45:57;;;;;;;0.03;0.03;;;7.30;99.90;;;;;;4982841;28;20035;-77
2022/10/07 01:48:22;;;;;;;0.00;0.00;;;7.30;99.90;;;;;;4983099;28;20093;-78
2022/10/07 01:50:50;;;;;;;7.75;1.98;;;7.40;99.90;;;;;;4983382;28;20050;-77
2022/10/07 01:53:38;;;;;;;0.30;0.13;;;7.40;99.90;;;;;;4983728;28;20035;-77
2022/10/07 01:56:07;;;;;;;0.00;0.00;;;7.40;99.90;;;;;;4983950;28;20038;-77
2022/10/07 01:58:52;;;;;;;1.85;1.60;;;7.40;99.90;;;;;;4984070;28;20065;-79
2022/10/07 02:01:48;;;;;;;0.38;0.30;;;7.50;99.90;;;;;;4983505;28;20053;-78
2022/10/07 02:04:32;;;;;;;0.70;0.43;;;7.50;99.90;;;;;;4983265;28;20051;-78
2022/10/07 02:07:03;;;;;;;0.00;0.00;;;7.50;99.90;;;;;;4981845;28;20058;-78
2022/10/07 02:09:54;;;;;;;5.18;1.23;;;7.50;99.90;;;;;;4981386;28;20057;-77
2022/10/07 02:12:36;;;;;;;0.25;0.25;;;7.50;99.90;;;;;;4983771;28;20075;-78
2022/10/07 02:15:07;;;;;;;0.43;0.43;;;7.50;99.90;;;;;;4982438;28;20086;-78
2022/10/07 02:17:37;;;;;;;0.47;0.47;;;7.50;99.90;;;;;;4969144;28;20122;-78
2022/10/07 02:20:07;;;;;;;0.00;0.00;;;7.40;99.90;;;;;;4967035;28;20102;-76
2022/10/07 02:22:35;;;;;;;0.90;0.30;;;7.40;99.90;;;;;;4984245;28;20051;-78
2022/10/07 02:25:10;;;;;;;0.00;0.00;;;7.40;99.90;;;;;;4984173;28;20102;-79
2022/10/07 02:27:44;;;;;;;0.05;0.05;;;7.40;99.90;;;;;;4973743;28;20063;-77
2022/10/07 02:30:13;;;;;;;1.98;1.65;;;7.40;99.90;;;;;;4965360;28;20059;-78
2022/10/07 02:32:43;;;;;;;0.73;0.30;;;7.40;99.90;;;;;;4964178;29;20066;-78
2022/10/07 02:35:31;;;;;;;0.00;0.00;;;7.40;99.90;;;;;;4964965;29;20066;-79
2022/10/07 02:38:01;;;;;;;1.75;1.45;;;7.50;99.90;;;;;;4965177;29;20047;-79
2022/10/07 02:40:34;;;;;;;2.00;0.95;;;7.30;99.90;;;;;;4963610;29;20054;-79
2022/10/07 02:43:09;;;;;;;0.00;0.00;;;7.40;99.90;;;;;;4964804;29;20051;-79
2022/10/07 02:45:44;;;;;;;0.20;0.20;;;7.30;99.90;;;;;;4953012;29;20095;-78
2022/10/07 02:48:26;;;;;;;0.10;0.10;;;7.20;99.90;;;;;;4944489;29;20339;-78
2022/10/07 02:50:55;;;;;;;0.15;0.10;;;7.20;99.90;;;;;;4949614;29;20055;-79
2022/10/07 02:53:22;;;;;;;0.50;0.40;;;7.10;99.90;;;;;;4946023;29;20414;-78
2022/10/07 02:55:51;;;;;;;0.05;0.05;;;7.10;99.90;;;;;;4964163;29;20055;-78
2022/10/07 02:58:18;;;;;;;0.57;0.28;;;7.00;99.90;;;;;;4964402;29;20121;-78
2022/10/07 03:00:51;;;;;;;0.20;0.20;;;7.00;99.90;;;;;;4947222;29;20051;-78
2022/10/07 03:03:17;;;;;;;0.10;0.10;;;7.10;99.90;;;;;;4962819;29;20031;-78
2022/10/07 03:05:43;;;;;;;10.32;1.00;;;7.00;99.90;;;;;;4962936;29;20075;-78
2022/10/07 03:08:10;;;;;;;5.95;1.75;;;7.30;99.90;;;;;;4963686;29;20073;-79
2022/10/07 03:10:37;;;;;;;0.20;0.20;;;7.10;99.90;;;;;;4962078;29;20063;-79
2022/10/07 03:13:03;;;;;;;0.00;0.00;;;7.10;99.90;;;;;;4962929;29;20043;-78
2022/10/07 03:15:31;;;;;;;0.00;0.00;;;7.10;99.90;;;;;;4963863;29;20114;-77
2022/10/07 03:17:56;;;;;;;0.00;0.00;;;7.00;99.90;;;;;;4962835;29;20043;-78
2022/10/07 03:20:22;;;;;;;0.40;0.40;;;7.00;99.90;;;;;;4962863;29;20053;-78
2022/10/07 03:22:49;;;;;;;0.10;0.10;;;7.00;99.90;;;;;;4961932;29;20126;-77
2022/10/07 03:25:15;;;;;;;0.13;0.13;;;7.00;99.90;;;;;;4961879;28;20060;-78
2022/10/07 03:27:41;;;;;;;1.75;1.45;;;7.40;99.90;;;;;;4962556;28;20067;-77
2022/10/07 03:30:08;;;;;;;0.30;0.28;;;7.00;99.90;;;;;;4962055;29;20130;-78
2022/10/07 03:32:33;;;;;;;0.00;0.00;;;7.00;99.90;;;;;;4961038;28;20166;-78
2022/10/07 03:34:59;;;;;;;0.00;0.00;;;7.10;99.90;;;;;;4962552;29;20143;-78
2022/10/07 03:37:25;;;;;;;0.57;0.57;;;7.20;99.90;;;;;;4961768;29;20050;-78
2022/10/07 03:39:52;;;;;;;0.00;0.00;;;7.20;99.90;;;;;;4961700;29;20118;-78
2022/10/07 03:42:19;;;;;;;1.08;0.95;;;8.00;99.90;;;;;;4961899;29;20062;-79
2022/10/07 03:44:48;;;;;;;0.00;0.00;;;7.10;99.90;;;;;;4960948;28;20055;-78
2022/10/07 03:47:16;;;;;;;0.40;0.40;;;7.10;99.90;;;;;;4960527;29;20138;-79
2022/10/07 03:49:42;;;;;;;0.00;0.00;;;7.10;99.90;;;;;;4945227;29;20075;-79
2022/10/07 03:52:08;;;;;;;0.15;0.15;;;7.10;99.90;;;;;;4961254;29;20490;-79
2022/10/07 03:54:34;;;;;;;0.65;0.47;;;7.10;99.90;;;;;;4962132;29;20074;-79
2022/10/07 03:57:00;;;;;;;0.30;0.30;;;7.10;99.90;;;;;;4961602;28;20050;-79
2022/10/07 03:59:26;;;;;;;0.35;0.35;;;7.10;99.90;;;;;;4961945;29;20055;-78
2022/10/07 04:01:52;;;;;;;0.63;0.35;;;7.10;99.90;;;;;;4962103;29;20070;-77
2022/10/07 04:04:19;;;;;;;7.93;1.48;;;7.30;99.90;;;;;;4961033;29;20047;-78
2022/10/07 04:06:45;;;;;;;0.30;0.30;;;7.10;99.90;;;;;;4961494;29;20086;-78
2022/10/07 04:09:14;;;;;;;8.50;1.30;;;7.20;99.90;;;;;;4962419;29;20043;-77
2022/10/07 04:11:40;;;;;;;0.38;0.38;;;7.10;99.90;;;;;;4960831;29;20039;-77
2022/10/07 04:14:07;;;;;;;1.02;0.98;;;7.10;99.90;;;;;;4943331;29;20049;-79
2022/10/07 04:16:33;;;;;;;5.57;0.68;;;7.10;99.90;;;;;;4943262;29;20491;-79
2022/10/07 04:18:59;;;;;;;0.20;0.20;;;7.40;99.90;;;;;;4960476;29;20511;-78
2022/10/07 04:21:24;;;;;;;0.38;0.38;;;7.20;99.90;;;;;;4961294;28;20075;-79
2022/10/07 04:23:50;;;;;;;0.82;0.77;;;7.20;99.90;;;;;;4960098;29;20142;-77
2022/10/07 04:26:16;;;;;;;0.28;0.28;;;7.20;99.90;;;;;;4959655;28;20054;-80
2022/10/07 04:28:41;;;;;;;1.08;0.63;;;7.30;99.90;;;;;;4961615;28;20102;-79
2022/10/07 04:31:09;;;;;;;0.22;0.22;;;7.30;99.90;;;;;;4960601;29;20467;-78
2022/10/07 04:33:39;;;;;;;0.03;0.03;;;7.30;99.90;;;;;;4962033;29;20051;-78
2022/10/07 04:36:05;;;;;;;0.20;0.20;;;7.30;99.90;;;;;;4960518;28;20048;-78
2022/10/07 04:38:31;;;;;;;0.15;0.13;;;7.30;99.90;;;;;;4964539;28;20087;-78
2022/10/07 04:41:01;;;;;;;0.93;0.60;;;7.30;99.90;;;;;;4963325;29;20035;-79
2022/10/07 04:43:32;;;;;;;0.30;0.28;;;7.30;99.90;;;;;;4963897;29;20062;-79
2022/10/07 04:46:10;;;;;;;0.43;0.38;;;7.30;99.90;;;;;;4962544;29;20052;-78
2022/10/07 04:48:36;;;;;;;0.50;0.32;;;7.30;99.90;;;;;;4963177;29;20079;-79
2022/10/07 04:51:06;;;;;;;0.28;0.28;;;7.30;99.90;;;;;;4962435;29;20050;-77
2022/10/07 04:53:32;;;;;;;0.73;0.65;;;7.40;99.90;;;;;;4943276;29;20049;-78
2022/10/07 04:55:59;;;;;;;0.60;0.20;;;7.40;99.90;;;;;;4961342;29;20067;-79
2022/10/07 04:58:26;;;;;;;0.47;0.35;;;7.40;99.90;;;;;;4943613;29;20759;-78
2022/10/07 05:00:53;;;;;;;0.65;0.55;;;7.50;99.90;;;;;;4960464;29;20035;-77
2022/10/07 05:03:21;;;;;;;0.63;0.63;;;7.50;99.90;;;;;;4961361;29;20181;-78
2022/10/07 05:05:49;;;;;;;0.00;0.00;;;7.40;99.90;;;;;;4961786;29;20483;-77
2022/10/07 05:08:16;;;;;;;0.00;0.00;;;7.40;99.90;;;;;;4960969;29;20050;-78
2022/10/07 05:10:44;;;;;;;4.38;1.85;;;7.40;99.90;;;;;;4962176;29;20051;-78
2022/10/07 05:13:12;;;;;;;0.03;0.03;;;7.40;99.90;;;;;;4961861;29;20151;-78
2022/10/07 05:15:50;;;;;;;0.35;0.28;;;7.50;99.90;;;;;;4963055;29;20039;-79
2022/10/07 05:18:17;;;;;;;1.85;1.08;;;7.50;99.90;;;;;;4963670;28;20051;-78
2022/10/07 05:20:45;;;;;;;0.00;0.00;;;7.50;99.90;;;;;;4960749;29;20122;-77
2022/10/07 05:23:11;;;;;;;0.15;0.15;;;7.60;99.90;;;;;;4960406;29;20071;-78
2022/10/07 05:25:37;;;;;;;0.10;0.10;;;7.50;99.90;;;;;;4960048;29;20043;-79
2022/10/07 05:28:03;;;;;;;0.20;0.20;;;7.70;99.90;;;;;;4962540;28;20051;-77
2022/10/07 05:30:28;;;;;;;10.82;1.13;;;7.50;99.90;;;;;;4961482;29;20058;-78
2022/10/07 05:32:54;;;;;;;2.40;1.38;;;7.50;99.90;;;;;;4959861;29;20522;-77
2022/10/07 05:35:21;;;;;;;0.00;0.00;;;7.50;99.90;;;;;;4960697;29;20122;-78
2022/10/07 05:37:52;;;;;;;0.10;0.10;;;7.50;99.90;;;;;;4960965;29;20532;-78
2022/10/07 05:40:18;;;;;;;0.68;0.68;;;7.50;99.90;;;;;;4962149;29;20065;-78
2022/10/07 05:42:44;;;;;;;2.25;0.90;;;7.50;99.90;;;;;;4960193;29;20083;-78
2022/10/07 05:45:10;;;;;;;0.40;0.30;;;7.50;99.90;;;;;;4957249;29;20039;-78
2022/10/07 05:47:36;;;;;;;1.55;1.02;;;7.50;99.90;;;;;;4955263;28;20075;-78
2022/10/07 05:50:01;;;;;;;2.63;1.52;;;7.50;99.90;;;;;;4954567;29;20047;-80
2022/10/07 05:52:29;;;;;;;1.55;1.08;;;7.60;99.90;;;;;;4957276;29;20047;-77
2022/10/07 05:54:56;;;;;;;0.38;0.38;;;7.60;99.90;;;;;;4955860;29;20047;-77
2022/10/07 05:57:21;;;;;;;0.30;0.22;;;7.60;99.90;;;;;;4957149;29;20103;-79
2022/10/07 05:59:48;;;;;;;2.22;0.47;;;7.60;99.90;;;;;;4958764;29;20083;-78
2022/10/07 06:02:16;;;;;;;0.10;0.10;;;7.70;99.90;;;;;;4956626;29;20051;-78
2022/10/07 06:04:42;;;;;;;1.30;1.10;;;7.90;99.90;;;;;;4939553;29;20122;-79
2022/10/07 06:07:11;;;;;;;0.00;0.00;;;7.90;99.90;;;;;;4957319;29;20051;-79
2022/10/07 06:15:08;;;;;;;0.10;0.10;;;8.00;99.90;;;;;;4955508;29;20427;-79
2022/10/07 06:17:35;;;;;;;0.17;0.15;;;8.10;99.90;;;;;;4939331;29;20047;-78
2022/10/07 06:20:00;;;;;;;0.00;0.00;;;8.20;99.90;;;;;;4955491;29;20055;-80
2022/10/07 06:22:26;;;;;;;0.00;0.00;;;8.30;99.90;;;;;;4956694;29;20102;-78
2022/10/07 06:24:56;;;;;;;1.13;1.02;;;8.30;99.90;;;;;;4954203;29;20051;-77
2022/10/07 06:27:23;;;;;;;0.10;0.10;;;8.40;99.90;;;;;;4962183;28;20067;-77
2022/10/07 06:29:48;;;;;;;0.13;0.10;;;8.50;99.90;;;;;;4974233;28;20217;-77
2022/10/07 06:32:14;;;;;;;0.35;0.35;;;8.60;99.90;;;;;;4974098;28;20110;-77
2022/10/07 06:34:40;;;;;;;0.43;0.20;;;8.80;99.90;;;;;;4972790;28;20126;-77
2022/10/07 06:37:05;;;;;;;0.20;0.15;;;8.80;99.90;;;;;;4973390;28;20507;-76
2022/10/07 06:39:31;;;;;;;0.63;0.63;;;8.90;99.90;;;;;;4974269;28;20418;-78
2022/10/07 06:41:56;;;;;;;0.13;0.13;;;9.00;99.90;;;;;;4955107;28;20050;-77
2022/10/07 06:44:22;;;;;;;0.43;0.43;;;9.10;99.90;;;;;;4970649;28;20125;-76
2022/10/07 06:46:48;;;;;;;0.15;0.15;;;9.20;99.90;;;;;;4970083;28;20097;-77
2022/10/07 06:49:13;;;;;;;0.70;0.70;;;9.30;99.90;;;;;;4971339;28;20058;-77
2022/10/07 06:51:39;;;;;;;0.32;0.30;;;9.30;99.90;;;;;;4970604;28;20058;-76
2022/10/07 06:54:05;;;;;;;0.70;0.63;;;9.50;99.90;;;;;;4972201;28;20529;-77
2022/10/07 06:56:30;;;;;;;0.55;0.55;;;9.50;99.90;;;;;;4971962;28;20058;-78
2022/10/07 06:58:56;;;;;;;2.63;1.35;;;9.60;99.90;;;;;;4971032;28;20126;-79
2022/10/07 07:01:22;;;;;;;0.05;0.05;;;9.70;99.90;;;;;;4970910;28;20115;-78
2022/10/07 07:03:47;;;;;;;1.75;1.65;;;9.70;99.90;;;;;;4971798;28;20053;-76
2022/10/07 07:06:13;;;;;;;0.08;0.08;;;9.80;99.90;;;;;;4972036;28;20053;-81
2022/10/07 07:08:40;;;;;;;0.10;0.10;;;9.90;99.90;;;;;;4970275;28;20101;-83
2022/10/07 07:13:55;;;;;;;0.10;0.10;;;10.00;99.90;;;;;;4969458;28;20069;-81
2022/10/07 07:16:23;;;;;;;0.30;0.20;;;10.10;99.90;;;;;;4952240;28;20940;-81
2022/10/07 07:18:57;;;;;;;0.57;0.52;;;10.20;99.90;;;;;;4969784;28;20518;-82
2022/10/07 07:21:24;;;;;;;0.80;0.55;;;10.20;99.90;;;;;;4968138;28;20074;-81
2022/10/07 07:23:50;;;;;;;0.68;0.68;;;10.30;99.90;;;;;;4968262;28;20549;-81
2022/10/07 07:26:19;;;;;;;4.38;1.55;;;10.40;99.90;;;;;;4968767;28;20061;-82
2022/10/07 07:28:52;;;;;;;0.10;0.10;;;10.50;99.90;;;;;;4970559;28;20058;-82
2022/10/07 07:31:17;;;;;;;3.83;0.75;;;10.60;99.90;;;;;;4971255;28;20050;-80
2022/10/07 07:33:43;;;;;;;3.70;1.20;;;10.60;99.90;;;;;;4969310;28;20105;-82
2022/10/07 07:36:15;;;;;;;0.00;0.00;;;10.80;99.90;;;;;;4968967;28;20055;-81
2022/10/07 07:38:55;;;;;;;0.08;0.08;;;10.80;99.90;;;;;;4970637;28;20214;-80
2022/10/07 07:41:27;;;;;;;2.53;2.40;;;10.90;99.90;;;;;;4970871;28;20046;-80
2022/10/07 07:43:56;;;;;;;0.22;0.10;;;11.10;99.90;;;;;;4970068;28;20049;-81
2022/10/07 07:46:24;;;;;;;1.35;1.02;;;11.10;99.90;;;;;;4971721;28;20068;-81
2022/10/07 07:48:51;;;;;;;0.20;0.20;;;11.10;99.90;;;;;;4970484;28;20050;-80
2022/10/07 07:51:17;;;;;;;1.77;0.88;;;11.20;99.90;;;;;;4954233;28;20074;-80
2022/10/07 07:53:44;;;;;;;6.72;1.05;;;11.30;99.90;;;;;;4970338;28;20053;-79
2022/10/07 07:56:11;;;;;;;0.00;0.00;;;11.90;99.90;;;;;;4970767;28;20043;-79
2022/10/07 07:58:37;;;;;;;0.00;0.00;;;11.50;99.90;;;;;;4970904;28;20510;-81
2022/10/07 08:01:08;;;;;;;0.73;0.30;;;11.70;99.90;;;;;;4969998;28;20106;-80
2022/10/07 08:03:38;;;;;;;2.35;0.88;;;11.60;43.50;;;;;;4971638;28;20097;-78
2022/10/07 08:06:05;;;;;;;3.42;0.35;;;11.70;17.10;;;;;;4970445;28;20054;-77
2022/10/07 08:08:32;;;;;;;1.35;0.30;;;11.70;64.10;;;;;;4954009;28;20050;-78
2022/10/07 08:11:13;;;;;;;3.42;1.25;;;11.80;15.40;;;;;;4954943;28;20046;-77
2022/10/07 08:13:40;;;;;;;0.65;0.40;;;11.90;35.00;;;;;;4972672;28;20078;-78
2022/10/07 08:16:07;;;;;;;0.35;0.35;;;12.10;1.00;;;;;;4972047;28;20051;-78
2022/10/07 08:18:33;;;;;;;0.00;0.00;;;12.50;1.00;;;;;;4969950;28;20495;-79
2022/10/07 08:21:03;;;;;;;0.32;0.28;;;12.70;1.00;;;;;;4969449;28;20046;-79
2022/10/07 08:23:29;;;;;;;0.20;0.20;;;12.60;99.90;;;;;;4971114;28;20569;-78
2022/10/07 08:25:56;;;;;;;0.20;0.10;;;12.60;99.90;;;;;;4971494;28;20043;-78
2022/10/07 08:28:22;;;;;;;0.13;0.05;;;12.50;99.90;;;;;;4969963;28;20394;-77
2022/10/07 08:30:49;;;;;;;0.65;0.28;;;12.50;99.90;;;;;;4971698;28;20049;-79
2022/10/07 08:33:17;;;;;;;0.28;0.25;;;12.40;99.90;;;;;;4970253;28;20043;-77
2022/10/07 08:35:42;;;;;;;1.55;0.75;;;12.40;99.90;;;;;;4969745;28;20047;-77
2022/10/07 08:38:10;;;;;;;0.90;0.60;;;12.50;99.90;;;;;;4970528;28;20050;-77
2022/10/07 08:40:36;;;;;;;0.40;0.40;;;12.50;99.90;;;;;;4972257;28;20533;-76
2022/10/07 08:43:02;;;;;;;0.05;0.05;;;12.60;99.90;;;;;;4970026;28;20047;-77
2022/10/07 08:45:32;;;;;;;0.22;0.20;;;12.60;99.90;;;;;;4970211;28;20417;-77
2022/10/07 08:48:06;;;;;;;0.00;0.00;;;12.70;99.90;;;;;;4970471;28;20142;-77
2022/10/07 08:50:54;;;;;;;0.35;0.30;;;12.80;99.90;;;;;;4970236;28;20058;-77
2022/10/07 08:53:29;;;;;;;0.00;0.00;;;13.00;1.00;;;;;;4970093;28;20051;-75
2022/10/07 08:56:08;;;;;;;0.32;0.22;;;13.00;1.00;;;;;;4971387;28;20078;-76
2022/10/07 08:59:08;;;;;;;0.15;0.08;;;13.10;99.90;;;;;;4970016;28;20057;-77
2022/10/07 09:01:45;;;;;;;0.20;0.17;;;13.20;1.00;;;;;;4969044;28;20133;-78
2022/10/07 09:04:36;;;;;;;2.03;0.47;;;13.30;99.90;;;;;;4968771;28;20159;-78
2022/10/07 09:07:13;;;;;;;2.83;1.88;;;13.40;99.90;;;;;;4969948;28;20047;-78
2022/10/07 09:09:41;;;;;;;2.03;0.52;;;13.50;99.90;;;;;;4969030;28;20107;-77
2022/10/07 09:12:19;;;;;;;5.95;0.63;;;13.50;99.90;;;;;;4968693;28;20046;-76
2022/10/07 09:14:46;;;;;;;0.05;0.05;;;13.60;99.90;;;;;;4968144;28;20167;-78
2022/10/07 09:17:38;;;;;;;2.05;1.85;;;13.70;99.90;;;;;;4969164;28;20069;-78
2022/10/07 09:20:25;;;;;;;0.32;0.20;;;13.80;99.90;;;;;;4971163;28;20070;-77
2022/10/07 09:22:56;;;;;;;0.00;0.00;;;15.00;99.90;;;;;;4971822;28;20047;-75
2022/10/07 09:25:25;;;;;;;15.15;1.30;;;14.10;99.90;;;;;;4973264;28;20149;-77
2022/10/07 09:27:51;;;;;;;0.70;0.70;;;14.30;99.90;;;;;;4948882;29;20589;-76
2022/10/07 09:30:18;;;;;;;1.85;1.02;;;14.30;1.00;;;;;;4956776;29;20110;-75
2022/10/07 09:32:46;;;;;;;0.95;0.88;;;14.40;99.90;;;;;;4956650;29;20054;-76
2022/10/07 09:35:18;;;;;;;0.00;0.00;;;14.50;99.90;;;;;;4954178;29;20355;-76
2022/10/07 09:37:55;;;;;;;3.20;1.17;;;14.70;1.00;;;;;;4953372;29;20049;-78
2022/10/07 09:40:26;;;;;;;;;;;14.70;1.00;;;;;;4953624;29;20052;-77
2022/10/07 09:42:53;;;;;;;0.20;0.13;;;14.80;99.90;;;;;;4953866;29;19926;-77
2022/10/07 09:45:26;;;;;;;0.00;0.00;;;14.90;99.90;;;;;;4953723;29;20043;-77
2022/10/07 09:47:55;;;;;;;0.03;0.03;;;15.00;99.90;;;;;;4952049;29;20039;-76
2022/10/07 09:50:47;;;;;;;0.17;0.17;;;15.20;99.90;;;;;;4952372;29;20058;-77
2022/10/07 09:53:24;;;;;;;0.20;0.20;;;15.50;99.90;;;;;;4948567;29;20059;-75
2022/10/07 09:55:52;;;;;;;0.85;0.47;;;15.50;99.90;;;;;;4954790;28;20134;-76
2022/10/07 09:58:27;;;;;;;1.38;0.70;;;15.80;63.30;;;;;;4938209;29;20162;-75
2022/10/07 10:00:55;;;;;;;2.13;0.52;;;16.00;39.10;;;;;;4955365;29;20057;-77
2022/10/07 10:03:29;;;;;;;0.40;0.28;;;16.90;1.00;;;;;;4955681;29;20153;-77
2022/10/07 10:06:00;;;;;;;0.45;0.45;;;16.30;99.90;;;;;;4955341;29;20459;-76
2022/10/07 10:08:40;;;;;;;3.03;1.40;;;16.50;1.00;;;;;;4954048;29;20081;-75
2022/10/07 10:11:29;;;;;;;1.17;0.40;;;16.50;1.00;;;;;;4952824;29;20416;-76
2022/10/07 10:13:54;;;;;;;0.43;0.35;;;16.60;99.90;;;;;;4956064;29;20062;-77
2022/10/07 10:16:23;;;;;;;0.70;0.50;;;16.70;1.00;;;;;;4955350;29;20114;-75
2022/10/07 10:19:01;;;;;;;0.25;0.25;;;16.90;99.90;;;;;;4955382;29;20110;-74
2022/10/07 10:21:39;;;;;;;0.10;0.10;;;17.00;99.90;;;;;;4955441;29;20055;-78
2022/10/07 10:24:11;;;;;;;0.73;0.65;;;16.90;99.90;;;;;;4953912;29;20529;-75
2022/10/07 10:27:00;;;;;;;0.68;0.50;;;16.90;99.90;;;;;;4953263;29;20099;-76
2022/10/07 10:29:52;;;;;;;0.45;0.43;;;17.30;99.90;;;;;;4972977;28;20046;-78
2022/10/07 10:32:48;;;;;;;0.00;0.00;;;16.80;99.90;;;;;;4974495;28;20062;-76
2022/10/07 10:35:26;;;;;;;4.07;0.40;;;17.00;99.90;;;;;;4972181;28;20054;-76
2022/10/07 10:38:19;;;;;;;0.93;0.85;;;17.20;99.90;;;;;;4972672;28;20047;-76
2022/10/07 10:41:04;;;;;;;3.65;0.73;;;17.40;99.90;;;;;;4972543;28;20058;-77
2022/10/07 10:44:03;;;;;;;3.30;1.45;;;17.60;99.90;;;;;;4972502;28;20054;-76
2022/10/07 10:47:00;;;;;;;0.75;0.75;;;17.60;99.90;;;;;;4972067;28;20058;-76
2022/10/07 10:49:40;;;;;;;0.30;0.22;;;17.70;99.90;;;;;;4973299;28;20098;-77
2022/10/07 10:52:13;;;;;;;4.78;1.05;;;17.80;99.90;;;;;;4972537;28;20050;-75
2022/10/07 10:55:17;;;;;;;0.68;0.60;;;17.70;99.90;;;;;;4972189;28;20117;-76
2022/10/07 10:57:56;;;;;;;0.28;0.28;;;17.70;99.90;;;;;;4972656;28;20056;-77
2022/10/07 11:00:22;;;;;;;0.00;0.00;;;17.70;99.90;;;;;;4974185;28;20502;-77
2022/10/07 11:03:12;;;;;;;0.30;0.20;;;17.90;99.90;;;;;;4970808;28;20046;-76
2022/10/07 11:05:41;;;;;;;0.10;0.10;;;17.80;99.90;;;;;;4938867;28;20059;-77
2022/10/07 11:08:21;;;;;;;1.00;0.95;;;17.90;99.90;;;;;;4970195;28;20105;-77
2022/10/07 11:10:57;;;;;;;0.25;0.22;;;18.00;99.90;;;;;;4972261;28;20095;-78
2022/10/07 11:13:34;;;;;;;3.00;0.65;;;18.20;99.90;;;;;;4971076;28;20094;-76
2022/10/07 11:16:13;;;;;;;0.55;0.55;;;18.40;99.90;;;;;;4969801;28;20050;-76
2022/10/07 11:18:55;;;;;;;2.78;0.55;;;18.50;99.90;;;;;;4969042;28;20121;-75
2022/10/07 11:21:51;;;;;;;0.30;0.30;;;18.50;99.90;;;;;;4969322;28;20047;-76
2022/10/07 11:24:26;;;;;;;1.95;0.65;;;18.60;99.90;;;;;;4967788;28;20542;-76
2022/10/07 11:27:13;;;;;;;1.55;0.70;;;18.50;99.90;;;;;;4968602;28;20081;-75
2022/10/07 11:30:07;;;;;;;5.10;0.68;;;18.50;99.90;;;;;;4969846;28;20083;-78
2022/10/07 11:33:05;;;;;;;0.28;0.25;;;18.60;99.90;;;;;;4967734;28;20050;-76
2022/10/07 11:35:36;;;;;;;0.35;0.25;;;18.70;99.90;;;;;;4953193;28;20050;-75
2022/10/07 11:38:13;;;;;;;0.75;0.65;;;19.00;99.90;;;;;;4970433;28;20051;-77
2022/10/07 11:40:53;;;;;;;3.53;0.68;;;19.10;99.90;;;;;;4970081;28;20594;-76
2022/10/07 11:43:27;;;;;;;0.40;0.38;;;19.40;99.90;;;;;;4970348;28;20038;-77
2022/10/07 11:45:59;;;;;;;0.20;0.20;;;19.50;52.70;;;;;;4969912;28;20086;-76
2022/10/07 11:48:37;;;;;;;0.00;0.00;;;19.40;99.90;;;;;;4969278;28;20106;-78
2022/10/07 11:51:06;;;;;;;0.65;0.60;;;19.40;74.20;;;;;;4971023;28;20360;-76
2022/10/07 11:53:38;;;;;;;1.00;0.63;;;19.60;97.60;;;;;;4969152;28;20050;-77
2022/10/07 11:56:22;;;;;;;1.08;0.40;;;19.90;1.00;;;;;;4968081;28;20050;-78
2022/10/07 11:58:59;;;;;;;0.30;0.30;;;19.90;1.00;;;;;;4969708;28;20577;-79
2022/10/07 12:01:24;;;;;;;1.42;0.80;;;19.80;1.00;;;;;;4968369;28;20039;-76
2022/10/07 12:03:52;;;;;;;1.27;0.43;;;20.10;1.00;;;;;;4968068;28;20058;-77
2022/10/07 12:06:18;;;;;;;1.17;0.80;;;20.20;99.90;;;;;;4966965;28;20688;-78
2022/10/07 12:08:45;;;;;;;0.15;0.08;;;20.30;99.90;;;;;;4968201;28;20478;-75
2022/10/07 12:11:11;;;;;;;1.45;1.05;;;20.00;99.90;;;;;;4967903;28;20055;-77
2022/10/07 12:13:42;;;;;;;1.50;0.82;;;19.90;99.90;;;;;;4951246;28;20098;-76
2022/10/07 12:16:30;;;;;;;14.93;1.17;;;19.70;99.90;;;;;;4970763;28;20079;-77
2022/10/07 12:19:09;;;;;;;0.75;0.40;;;19.50;1.00;;;;;;4970160;28;20062;-77
2022/10/07 12:22:03;;;;;;;0.28;0.28;;;19.30;99.90;;;;;;4969020;28;20074;-76
2022/10/07 12:24:34;;;;;;;3.53;0.95;;;19.20;1.00;;;;;;4967599;28;20070;-76
2022/10/07 12:27:28;;;;;;;2.25;0.82;;;18.90;1.00;;;;;;4967838;28;20504;-76
2022/10/07 12:30:01;;;;;;;2.30;1.13;;;18.90;1.00;;;;;;4965362;28;20508;-77
2022/10/07 12:32:59;;;;;;;0.28;0.25;;;19.20;1.00;;;;;;4970013;28;20046;-76
2022/10/07 12:35:33;;;;;;;1.65;0.35;;;18.70;1.00;;;;;;4970293;28;20114;-76
2022/10/07 12:38:09;;;;;;;0.52;0.15;;;18.80;1.00;;;;;;4967920;28;20055;-77
2022/10/07 12:40:36;;;;;;;0.00;0.00;;;18.80;1.00;;;;;;4967475;28;20109;-76
2022/10/07 12:43:12;;;;;;;0.00;0.00;;;18.90;1.00;;;;;;4966753;28;20076;-77
2022/10/07 12:45:42;;;;;;;3.50;0.93;;;18.80;1.00;;;;;;4968641;28;20508;-76
2022/10/07 12:48:15;;;;;;;0.70;0.55;;;18.70;1.00;;;;;;4969462;28;20133;-76
2022/10/07 12:50:42;;;;;;;0.57;0.45;;;18.60;1.00;;;;;;4969220;28;20129;-76
2022/10/07 12:53:10;;;;;;;0.20;0.20;;;18.40;1.00;;;;;;4970773;28;20130;-76
2022/10/07 12:55:39;;;;;;;0.65;0.38;;;18.40;1.00;;;;;;4969316;28;20121;-78
2022/10/07 13:01:45;;;;;;;8.68;2.28;;;18.40;1.00;;;;;;4971973;28;20499;-76
2022/10/07 13:04:33;;;;;;;0.17;0.10;;;18.30;1.00;;;;;;4972057;28;20149;-77
2022/10/07 13:07:17;;;;;;;2.38;1.08;;;18.20;1.00;;;;;;4971653;28;20066;-76
2022/10/07 13:10:07;;;;;;;0.00;0.00;;;18.40;1.00;;;;;;4971474;28;20058;-76
2022/10/07 13:12:54;;;;;;;0.00;0.00;;;18.60;99.90;;;;;;4972299;28;20129;-76
2022/10/07 13:15:19;;;;;;;2.15;0.95;;;18.70;99.90;;;;;;4970311;28;20061;-77
2022/10/07 13:18:01;;;;;;;3.35;1.80;;;19.00;99.90;;;;;;4971147;28;20055;-76
2022/10/07 13:20:35;;;;;;;10.98;1.35;;;18.70;99.90;;;;;;4972432;28;20046;-77
2022/10/07 13:23:10;;;;;;;0.10;0.10;;;18.70;99.90;;;;;;4971904;28;20047;-77
2022/10/07 13:25:43;;;;;;;0.00;0.00;;;18.80;99.90;;;;;;4973653;28;20057;-77
2022/10/07 13:28:15;;;;;;;0.00;0.00;;;18.90;99.90;;;;;;4971730;28;20122;-78
2022/10/07 13:30:43;;;;;;;0.00;0.00;;;19.80;99.90;;;;;;4971780;28;20042;-77